sensor_id;sensor_type;location;lat;lon;timestamp;P1;durP1;ratioP1;P2;durP2;ratioP2
22774;SDS011;11554;51.106;3.684;2022-12-18T00:00:00;86.60;;;43.60;;
22774;SDS011;11554;51.106;3.684;2022-12-18T00:05:00;86.60;;;43.60;;
22774;SDS011;11554;51.106;3.684;2022-12-18T00:10:00;84.30;;;42.80;;
22774;SDS011;11554;51.106;3.684;2022-12-18T00:15:00;84.30;;;42.80;;
22774;SDS011;11554;51.106;3.684;2022-12-18T00:20:00;89.00;;;45.50;;
22774;SDS011;11554;51.106;3.684;2022-12-18T00:25:00;89.00;;;45.50;;
22774;SDS011;11554;51.106;3.684;2022-12-18T00:30:00;87.00;;;42.40;;
22774;SDS011;11554;51.106;3.684;2022-12-18T00:35:00;87.00;;;42.40;;
22774;SDS011;11554;51.106;3.684;2022-12-18T00:40:01;74.70;;;36.30;;
22774;SDS011;11554;51.106;3.684;2022-12-18T00:45:00;74.70;;;36.30;;
22774;SDS011;11554;51.106;3.684;2022-12-18T00:50:00;78.10;;;37.40;;
22774;SDS011;11554;51.106;3.684;2022-12-18T00:55:00;78.10;;;37.40;;
22774;SDS011;11554;51.106;3.684;2022-12-18T01:00:01;64.00;;;31.70;;
22774;SDS011;11554;51.106;3.684;2022-12-18T01:05:00;64.00;;;31.70;;
22774;SDS011;11554;51.106;3.684;2022-12-18T01:10:00;69.50;;;32.60;;
22774;SDS011;11554;51.106;3.684;2022-12-18T01:15:00;69.50;;;32.60;;
22774;SDS011;11554;51.106;3.684;2022-12-18T01:20:00;73.40;;;35.70;;
22774;SDS011;11554;51.106;3.684;2022-12-18T01:25:00;73.40;;;35.70;;
22774;SDS011;11554;51.106;3.684;2022-12-18T01:30:01;70.20;;;32.50;;
22774;SDS011;11554;51.106;3.684;2022-12-18T01:35:01;64.90;;;31.10;;
22774;SDS011;11554;51.106;3.684;2022-12-18T01:40:00;64.90;;;31.10;;
22774;SDS011;11554;51.106;3.684;2022-12-18T01:45:05;61.40;;;31.10;;
22774;SDS011;11554;51.106;3.684;2022-12-18T01:50:04;61.40;;;31.10;;
22774;SDS011;11554;51.106;3.684;2022-12-18T01:55:01;68.00;;;32.40;;
22774;SDS011;11554;51.106;3.684;2022-12-18T02:00:05;68.00;;;32.40;;
22774;SDS011;11554;51.106;3.684;2022-12-18T02:05:01;64.60;;;29.40;;
22774;SDS011;11554;51.106;3.684;2022-12-18T02:10:06;64.60;;;29.40;;
22774;SDS011;11554;51.106;3.684;2022-12-18T02:15:07;61.40;;;27.40;;
22774;SDS011;11554;51.106;3.684;2022-12-18T02:20:07;61.40;;;27.40;;
22774;SDS011;11554;51.106;3.684;2022-12-18T02:25:13;56.30;;;25.10;;
22774;SDS011;11554;51.106;3.684;2022-12-18T02:30:02;56.30;;;25.10;;
22774;SDS011;11554;51.106;3.684;2022-12-18T02:35:03;65.30;;;29.80;;
22774;SDS011;11554;51.106;3.684;2022-12-18T02:40:03;65.30;;;29.80;;
22774;SDS011;11554;51.106;3.684;2022-12-18T02:45:00;60.30;;;29.60;;
22774;SDS011;11554;51.106;3.684;2022-12-18T02:50:07;60.30;;;29.60;;
22774;SDS011;11554;51.106;3.684;2022-12-18T02:55:11;60.50;;;26.90;;
22774;SDS011;11554;51.106;3.684;2022-12-18T03:00:04;60.50;;;26.90;;
22774;SDS011;11554;51.106;3.684;2022-12-18T03:05:05;55.10;;;24.80;;
22774;SDS011;11554;51.106;3.684;2022-12-18T03:10:00;55.10;;;24.80;;
22774;SDS011;11554;51.106;3.684;2022-12-18T03:15:04;53.00;;;24.80;;
22774;SDS011;11554;51.106;3.684;2022-12-18T03:20:04;53.00;;;24.80;;
22774;SDS011;11554;51.106;3.684;2022-12-18T03:25:03;58.60;;;27.60;;
22774;SDS011;11554;51.106;3.684;2022-12-18T03:30:03;58.60;;;27.60;;
22774;SDS011;11554;51.106;3.684;2022-12-18T03:35:03;55.20;;;25.50;;
22774;SDS011;11554;51.106;3.684;2022-12-18T03:40:00;55.20;;;25.50;;
22774;SDS011;11554;51.106;3.684;2022-12-18T03:45:07;56.20;;;27.40;;
22774;SDS011;11554;51.106;3.684;2022-12-18T03:50:10;56.20;;;27.40;;
22774;SDS011;11554;51.106;3.684;2022-12-18T03:55:01;54.40;;;25.30;;
22774;SDS011;11554;51.106;3.684;2022-12-18T04:00:05;54.40;;;25.30;;
22774;SDS011;11554;51.106;3.684;2022-12-18T04:05:03;47.70;;;24.30;;
22774;SDS011;11554;51.106;3.684;2022-12-18T04:10:02;47.70;;;24.30;;
22774;SDS011;11554;51.106;3.684;2022-12-18T04:15:01;54.60;;;26.00;;
22774;SDS011;11554;51.106;3.684;2022-12-18T04:20:00;54.60;;;26.00;;
22774;SDS011;11554;51.106;3.684;2022-12-18T04:25:00;57.10;;;28.00;;
22774;SDS011;11554;51.106;3.684;2022-12-18T04:30:00;57.10;;;28.00;;
22774;SDS011;11554;51.106;3.684;2022-12-18T04:35:00;51.40;;;25.90;;
22774;SDS011;11554;51.106;3.684;2022-12-18T04:40:00;51.40;;;25.90;;
22774;SDS011;11554;51.106;3.684;2022-12-18T04:45:00;53.50;;;23.90;;
22774;SDS011;11554;51.106;3.684;2022-12-18T04:50:00;53.50;;;23.90;;
22774;SDS011;11554;51.106;3.684;2022-12-18T04:55:00;50.30;;;24.80;;
22774;SDS011;11554;51.106;3.684;2022-12-18T05:00:00;50.30;;;24.80;;
22774;SDS011;11554;51.106;3.684;2022-12-18T05:05:00;49.60;;;24.00;;
22774;SDS011;11554;51.106;3.684;2022-12-18T05:10:00;49.60;;;24.00;;
22774;SDS011;11554;51.106;3.684;2022-12-18T05:15:03;44.10;;;22.50;;
22774;SDS011;11554;51.106;3.684;2022-12-18T05:20:00;44.10;;;22.50;;
22774;SDS011;11554;51.106;3.684;2022-12-18T05:25:00;46.20;;;22.30;;
22774;SDS011;11554;51.106;3.684;2022-12-18T05:30:00;46.20;;;22.30;;
22774;SDS011;11554;51.106;3.684;2022-12-18T05:35:00;40.40;;;21.00;;
22774;SDS011;11554;51.106;3.684;2022-12-18T05:40:00;40.40;;;21.00;;
22774;SDS011;11554;51.106;3.684;2022-12-18T05:45:00;41.60;;;20.10;;
22774;SDS011;11554;51.106;3.684;2022-12-18T05:50:01;41.60;;;20.10;;
22774;SDS011;11554;51.106;3.684;2022-12-18T05:55:00;46.20;;;23.20;;
22774;SDS011;11554;51.106;3.684;2022-12-18T06:00:01;46.20;;;23.20;;
22774;SDS011;11554;51.106;3.684;2022-12-18T06:05:00;42.20;;;21.50;;
22774;SDS011;11554;51.106;3.684;2022-12-18T06:10:01;42.20;;;21.50;;
22774;SDS011;11554;51.106;3.684;2022-12-18T06:15:00;47.00;;;24.10;;
22774;SDS011;11554;51.106;3.684;2022-12-18T06:20:00;47.00;;;24.10;;
22774;SDS011;11554;51.106;3.684;2022-12-18T06:25:01;45.10;;;22.80;;
22774;SDS011;11554;51.106;3.684;2022-12-18T06:30:01;45.10;;;22.80;;
22774;SDS011;11554;51.106;3.684;2022-12-18T06:35:00;49.40;;;24.20;;
22774;SDS011;11554;51.106;3.684;2022-12-18T06:40:00;49.40;;;24.20;;
22774;SDS011;11554;51.106;3.684;2022-12-18T06:45:00;36.20;;;18.70;;
22774;SDS011;11554;51.106;3.684;2022-12-18T06:50:00;36.20;;;18.70;;
22774;SDS011;11554;51.106;3.684;2022-12-18T06:55:00;36.80;;;18.90;;
22774;SDS011;11554;51.106;3.684;2022-12-18T07:00:00;36.80;;;18.90;;
22774;SDS011;11554;51.106;3.684;2022-12-18T07:05:00;36.50;;;17.80;;
22774;SDS011;11554;51.106;3.684;2022-12-18T07:10:00;36.50;;;17.80;;
22774;SDS011;11554;51.106;3.684;2022-12-18T07:15:01;40.50;;;19.70;;
22774;SDS011;11554;51.106;3.684;2022-12-18T07:20:00;40.50;;;19.70;;
22774;SDS011;11554;51.106;3.684;2022-12-18T07:25:00;32.60;;;16.60;;
22774;SDS011;11554;51.106;3.684;2022-12-18T07:30:00;32.60;;;16.60;;
22774;SDS011;11554;51.106;3.684;2022-12-18T07:35:00;29.30;;;15.10;;
22774;SDS011;11554;51.106;3.684;2022-12-18T07:40:00;29.30;;;15.10;;
22774;SDS011;11554;51.106;3.684;2022-12-18T07:45:01;28.00;;;14.10;;
22774;SDS011;11554;51.106;3.684;2022-12-18T07:50:00;28.00;;;14.10;;
22774;SDS011;11554;51.106;3.684;2022-12-18T07:55:00;27.50;;;13.30;;
22774;SDS011;11554;51.106;3.684;2022-12-18T08:00:00;27.50;;;13.30;;
22774;SDS011;11554;51.106;3.684;2022-12-18T08:05:00;25.80;;;13.50;;
22774;SDS011;11554;51.106;3.684;2022-12-18T08:10:00;25.80;;;13.50;;
22774;SDS011;11554;51.106;3.684;2022-12-18T08:15:00;21.70;;;11.70;;
22774;SDS011;11554;51.106;3.684;2022-12-18T08:20:00;21.70;;;11.70;;
22774;SDS011;11554;51.106;3.684;2022-12-18T08:25:00;30.50;;;15.20;;
22774;SDS011;11554;51.106;3.684;2022-12-18T08:30:00;30.50;;;15.20;;
22774;SDS011;11554;51.106;3.684;2022-12-18T08:35:00;23.80;;;13.10;;
22774;SDS011;11554;51.106;3.684;2022-12-18T08:40:00;23.80;;;13.10;;
22774;SDS011;11554;51.106;3.684;2022-12-18T08:45:00;26.10;;;13.70;;
22774;SDS011;11554;51.106;3.684;2022-12-18T08:50:00;26.10;;;13.70;;
22774;SDS011;11554;51.106;3.684;2022-12-18T08:55:00;19.80;;;9.20;;
22774;SDS011;11554;51.106;3.684;2022-12-18T09:00:00;19.80;;;9.20;;
22774;SDS011;11554;51.106;3.684;2022-12-18T09:05:00;23.50;;;13.00;;
22774;SDS011;11554;51.106;3.684;2022-12-18T09:10:00;23.50;;;13.00;;
22774;SDS011;11554;51.106;3.684;2022-12-18T09:15:00;26.20;;;13.90;;
22774;SDS011;11554;51.106;3.684;2022-12-18T09:20:00;26.20;;;13.90;;
22774;SDS011;11554;51.106;3.684;2022-12-18T09:25:00;18.90;;;10.20;;
22774;SDS011;11554;51.106;3.684;2022-12-18T09:30:00;18.90;;;10.20;;
22774;SDS011;11554;51.106;3.684;2022-12-18T09:35:00;21.40;;;12.20;;
22774;SDS011;11554;51.106;3.684;2022-12-18T09:40:00;21.40;;;12.20;;
22774;SDS011;11554;51.106;3.684;2022-12-18T09:45:00;19.30;;;10.80;;
22774;SDS011;11554;51.106;3.684;2022-12-18T09:50:03;19.30;;;10.80;;
22774;SDS011;11554;51.106;3.684;2022-12-18T09:55:05;38.00;;;20.00;;
22774;SDS011;11554;51.106;3.684;2022-12-18T10:00:04;38.00;;;20.00;;
22774;SDS011;11554;51.106;3.684;2022-12-18T10:05:04;29.10;;;16.80;;
22774;SDS011;11554;51.106;3.684;2022-12-18T10:10:04;29.10;;;16.80;;
22774;SDS011;11554;51.106;3.684;2022-12-18T10:15:06;22.60;;;12.80;;
22774;SDS011;11554;51.106;3.684;2022-12-18T10:20:05;22.60;;;12.80;;
22774;SDS011;11554;51.106;3.684;2022-12-18T10:25:04;27.70;;;16.00;;
22774;SDS011;11554;51.106;3.684;2022-12-18T10:30:04;27.70;;;16.00;;
22774;SDS011;11554;51.106;3.684;2022-12-18T10:35:00;26.70;;;15.10;;
22774;SDS011;11554;51.106;3.684;2022-12-18T10:40:11;26.70;;;15.10;;
22774;SDS011;11554;51.106;3.684;2022-12-18T10:45:02;21.50;;;12.50;;
22774;SDS011;11554;51.106;3.684;2022-12-18T10:50:00;21.50;;;12.50;;
22774;SDS011;11554;51.106;3.684;2022-12-18T10:55:03;22.40;;;12.60;;
22774;SDS011;11554;51.106;3.684;2022-12-18T11:00:20;22.40;;;12.60;;
22774;SDS011;11554;51.106;3.684;2022-12-18T11:05:00;28.20;;;15.80;;
22774;SDS011;11554;51.106;3.684;2022-12-18T11:10:00;28.20;;;15.80;;
22774;SDS011;11554;51.106;3.684;2022-12-18T11:15:00;29.10;;;16.30;;
22774;SDS011;11554;51.106;3.684;2022-12-18T11:20:02;29.10;;;16.30;;
22774;SDS011;11554;51.106;3.684;2022-12-18T11:25:02;29.20;;;16.30;;
22774;SDS011;11554;51.106;3.684;2022-12-18T11:30:08;29.20;;;16.30;;
22774;SDS011;11554;51.106;3.684;2022-12-18T11:35:04;26.20;;;15.20;;
22774;SDS011;11554;51.106;3.684;2022-12-18T11:40:04;26.20;;;15.20;;
22774;SDS011;11554;51.106;3.684;2022-12-18T11:45:21;27.50;;;15.30;;
22774;SDS011;11554;51.106;3.684;2022-12-18T11:50:02;27.50;;;15.30;;
22774;SDS011;11554;51.106;3.684;2022-12-18T11:55:08;28.90;;;16.10;;
22774;SDS011;11554;51.106;3.684;2022-12-18T12:00:04;28.90;;;16.10;;
22774;SDS011;11554;51.106;3.684;2022-12-18T12:05:13;29.40;;;17.40;;
22774;SDS011;11554;51.106;3.684;2022-12-18T12:10:08;29.40;;;17.40;;
22774;SDS011;11554;51.106;3.684;2022-12-18T12:15:05;27.70;;;16.30;;
22774;SDS011;11554;51.106;3.684;2022-12-18T12:20:07;27.70;;;16.30;;
22774;SDS011;11554;51.106;3.684;2022-12-18T12:25:08;31.30;;;20.20;;
22774;SDS011;11554;51.106;3.684;2022-12-18T12:30:04;31.30;;;20.20;;
22774;SDS011;11554;51.106;3.684;2022-12-18T12:35:09;30.90;;;17.00;;
22774;SDS011;11554;51.106;3.684;2022-12-18T12:40:01;30.90;;;17.00;;
22774;SDS011;11554;51.106;3.684;2022-12-18T12:45:02;32.20;;;19.20;;
22774;SDS011;11554;51.106;3.684;2022-12-18T12:50:04;32.20;;;19.20;;
22774;SDS011;11554;51.106;3.684;2022-12-18T12:55:02;31.60;;;18.50;;
22774;SDS011;11554;51.106;3.684;2022-12-18T13:00:04;31.60;;;18.50;;
22774;SDS011;11554;51.106;3.684;2022-12-18T13:05:04;33.10;;;19.70;;
22774;SDS011;11554;51.106;3.684;2022-12-18T13:10:13;33.10;;;19.70;;
22774;SDS011;11554;51.106;3.684;2022-12-18T13:15:12;34.70;;;18.90;;
22774;SDS011;11554;51.106;3.684;2022-12-18T13:20:05;34.70;;;18.90;;
22774;SDS011;11554;51.106;3.684;2022-12-18T13:25:00;35.00;;;20.50;;
22774;SDS011;11554;51.106;3.684;2022-12-18T13:30:00;35.00;;;20.50;;
22774;SDS011;11554;51.106;3.684;2022-12-18T13:40:00;35.30;;;20.70;;
22774;SDS011;11554;51.106;3.684;2022-12-18T13:45:00;37.50;;;21.80;;
22774;SDS011;11554;51.106;3.684;2022-12-18T13:50:02;37.50;;;21.80;;
22774;SDS011;11554;51.106;3.684;2022-12-18T13:55:06;38.60;;;22.00;;
22774;SDS011;11554;51.106;3.684;2022-12-18T14:00:19;38.60;;;22.00;;
22774;SDS011;11554;51.106;3.684;2022-12-18T14:05:00;36.00;;;18.20;;
22774;SDS011;11554;51.106;3.684;2022-12-18T14:10:01;36.00;;;18.20;;
22774;SDS011;11554;51.106;3.684;2022-12-18T14:15:00;41.20;;;22.30;;
22774;SDS011;11554;51.106;3.684;2022-12-18T14:20:00;41.20;;;22.30;;
22774;SDS011;11554;51.106;3.684;2022-12-18T14:25:13;40.20;;;21.30;;
22774;SDS011;11554;51.106;3.684;2022-12-18T14:30:00;40.20;;;21.30;;
22774;SDS011;11554;51.106;3.684;2022-12-18T14:35:12;39.00;;;21.10;;
22774;SDS011;11554;51.106;3.684;2022-12-18T14:40:02;39.00;;;21.10;;
22774;SDS011;11554;51.106;3.684;2022-12-18T14:50:00;43.10;;;22.30;;
22774;SDS011;11554;51.106;3.684;2022-12-18T14:55:00;40.70;;;21.70;;
22774;SDS011;11554;51.106;3.684;2022-12-18T15:00:04;40.70;;;21.70;;
22774;SDS011;11554;51.106;3.684;2022-12-18T15:05:01;40.50;;;22.40;;
22774;SDS011;11554;51.106;3.684;2022-12-18T15:10:08;40.50;;;22.40;;
22774;SDS011;11554;51.106;3.684;2022-12-18T15:15:01;39.10;;;20.60;;
22774;SDS011;11554;51.106;3.684;2022-12-18T15:20:03;39.10;;;20.60;;
22774;SDS011;11554;51.106;3.684;2022-12-18T15:25:01;43.30;;;22.70;;
22774;SDS011;11554;51.106;3.684;2022-12-18T15:30:03;43.30;;;22.70;;
22774;SDS011;11554;51.106;3.684;2022-12-18T15:35:07;38.70;;;20.90;;
22774;SDS011;11554;51.106;3.684;2022-12-18T15:40:00;38.70;;;20.90;;
22774;SDS011;11554;51.106;3.684;2022-12-18T15:45:00;44.30;;;22.00;;
22774;SDS011;11554;51.106;3.684;2022-12-18T15:50:00;44.30;;;22.00;;
22774;SDS011;11554;51.106;3.684;2022-12-18T15:55:00;45.50;;;21.00;;
22774;SDS011;11554;51.106;3.684;2022-12-18T16:00:00;45.50;;;21.00;;
22774;SDS011;11554;51.106;3.684;2022-12-18T16:05:00;41.80;;;21.10;;
22774;SDS011;11554;51.106;3.684;2022-12-18T16:10:00;41.80;;;21.10;;
22774;SDS011;11554;51.106;3.684;2022-12-18T16:15:00;42.30;;;22.10;;
22774;SDS011;11554;51.106;3.684;2022-12-18T16:20:00;42.30;;;22.10;;
22774;SDS011;11554;51.106;3.684;2022-12-18T16:25:00;42.00;;;21.10;;
22774;SDS011;11554;51.106;3.684;2022-12-18T16:30:00;42.00;;;21.10;;
22774;SDS011;11554;51.106;3.684;2022-12-18T16:35:00;42.90;;;21.50;;
22774;SDS011;11554;51.106;3.684;2022-12-18T16:40:00;42.90;;;21.50;;
22774;SDS011;11554;51.106;3.684;2022-12-18T16:45:00;54.50;;;26.90;;
22774;SDS011;11554;51.106;3.684;2022-12-18T16:50:00;54.50;;;26.90;;
22774;SDS011;11554;51.106;3.684;2022-12-18T16:55:00;42.70;;;22.10;;
22774;SDS011;11554;51.106;3.684;2022-12-18T17:00:00;42.70;;;22.10;;
22774;SDS011;11554;51.106;3.684;2022-12-18T17:05:00;38.70;;;19.70;;
22774;SDS011;11554;51.106;3.684;2022-12-18T17:10:00;38.70;;;19.70;;
22774;SDS011;11554;51.106;3.684;2022-12-18T17:15:00;40.20;;;21.10;;
22774;SDS011;11554;51.106;3.684;2022-12-18T17:20:00;40.20;;;21.10;;
22774;SDS011;11554;51.106;3.684;2022-12-18T17:25:01;39.70;;;19.50;;
22774;SDS011;11554;51.106;3.684;2022-12-18T17:30:00;39.70;;;19.50;;
22774;SDS011;11554;51.106;3.684;2022-12-18T17:35:00;40.70;;;20.70;;
22774;SDS011;11554;51.106;3.684;2022-12-18T17:40:00;40.70;;;20.70;;
22774;SDS011;11554;51.106;3.684;2022-12-18T17:45:00;45.70;;;23.30;;
22774;SDS011;11554;51.106;3.684;2022-12-18T17:50:00;45.70;;;23.30;;
22774;SDS011;11554;51.106;3.684;2022-12-18T17:55:00;43.10;;;21.70;;
22774;SDS011;11554;51.106;3.684;2022-12-18T18:00:00;43.10;;;21.70;;
22774;SDS011;11554;51.106;3.684;2022-12-18T18:05:00;50.40;;;25.40;;
22774;SDS011;11554;51.106;3.684;2022-12-18T18:10:00;50.40;;;25.40;;
22774;SDS011;11554;51.106;3.684;2022-12-18T18:15:00;42.70;;;20.80;;
22774;SDS011;11554;51.106;3.684;2022-12-18T18:20:00;42.70;;;20.80;;
22774;SDS011;11554;51.106;3.684;2022-12-18T18:25:00;53.70;;;25.30;;
22774;SDS011;11554;51.106;3.684;2022-12-18T18:30:00;53.70;;;25.30;;
22774;SDS011;11554;51.106;3.684;2022-12-18T18:35:00;40.30;;;18.70;;
22774;SDS011;11554;51.106;3.684;2022-12-18T18:40:00;40.30;;;18.70;;
22774;SDS011;11554;51.106;3.684;2022-12-18T18:45:00;46.20;;;22.80;;
22774;SDS011;11554;51.106;3.684;2022-12-18T18:50:00;46.20;;;22.80;;
22774;SDS011;11554;51.106;3.684;2022-12-18T18:55:00;46.30;;;23.20;;
22774;SDS011;11554;51.106;3.684;2022-12-18T19:00:00;46.30;;;23.20;;
22774;SDS011;11554;51.106;3.684;2022-12-18T19:05:00;40.10;;;19.70;;
22774;SDS011;11554;51.106;3.684;2022-12-18T19:10:00;40.10;;;19.70;;
22774;SDS011;11554;51.106;3.684;2022-12-18T19:15:00;37.60;;;18.50;;
22774;SDS011;11554;51.106;3.684;2022-12-18T19:20:00;37.60;;;18.50;;
22774;SDS011;11554;51.106;3.684;2022-12-18T19:25:00;59.40;;;31.70;;
22774;SDS011;11554;51.106;3.684;2022-12-18T19:30:00;59.40;;;31.70;;
22774;SDS011;11554;51.106;3.684;2022-12-18T19:35:01;46.60;;;23.50;;
22774;SDS011;11554;51.106;3.684;2022-12-18T19:40:00;46.60;;;23.50;;
22774;SDS011;11554;51.106;3.684;2022-12-18T19:45:00;36.70;;;18.70;;
22774;SDS011;11554;51.106;3.684;2022-12-18T19:50:00;36.70;;;18.70;;
22774;SDS011;11554;51.106;3.684;2022-12-18T19:55:00;46.70;;;23.10;;
22774;SDS011;11554;51.106;3.684;2022-12-18T20:00:00;46.70;;;23.10;;
22774;SDS011;11554;51.106;3.684;2022-12-18T20:05:00;42.60;;;21.90;;
22774;SDS011;11554;51.106;3.684;2022-12-18T20:10:01;42.60;;;21.90;;
22774;SDS011;11554;51.106;3.684;2022-12-18T20:15:00;48.80;;;23.20;;
22774;SDS011;11554;51.106;3.684;2022-12-18T20:20:00;48.80;;;23.20;;
22774;SDS011;11554;51.106;3.684;2022-12-18T20:25:00;50.30;;;23.00;;
22774;SDS011;11554;51.106;3.684;2022-12-18T20:30:00;50.30;;;23.00;;
22774;SDS011;11554;51.106;3.684;2022-12-18T20:35:00;44.30;;;21.70;;
22774;SDS011;11554;51.106;3.684;2022-12-18T20:40:00;44.30;;;21.70;;
22774;SDS011;11554;51.106;3.684;2022-12-18T20:45:00;45.60;;;22.20;;
22774;SDS011;11554;51.106;3.684;2022-12-18T20:50:00;45.60;;;22.20;;
22774;SDS011;11554;51.106;3.684;2022-12-18T20:55:00;47.00;;;23.00;;
22774;SDS011;11554;51.106;3.684;2022-12-18T21:00:00;47.00;;;23.00;;
22774;SDS011;11554;51.106;3.684;2022-12-18T21:05:00;49.90;;;22.70;;
22774;SDS011;11554;51.106;3.684;2022-12-18T21:10:00;49.90;;;22.70;;
22774;SDS011;11554;51.106;3.684;2022-12-18T21:15:01;45.80;;;22.50;;
22774;SDS011;11554;51.106;3.684;2022-12-18T21:20:00;45.80;;;22.50;;
22774;SDS011;11554;51.106;3.684;2022-12-18T21:25:00;44.00;;;20.20;;
22774;SDS011;11554;51.106;3.684;2022-12-18T21:30:00;44.00;;;20.20;;
22774;SDS011;11554;51.106;3.684;2022-12-18T21:35:00;38.40;;;19.10;;
22774;SDS011;11554;51.106;3.684;2022-12-18T21:40:00;38.40;;;19.10;;
22774;SDS011;11554;51.106;3.684;2022-12-18T21:45:00;36.20;;;17.60;;
22774;SDS011;11554;51.106;3.684;2022-12-18T21:50:00;36.20;;;17.60;;
22774;SDS011;11554;51.106;3.684;2022-12-18T21:55:01;39.10;;;18.30;;
22774;SDS011;11554;51.106;3.684;2022-12-18T22:00:00;39.10;;;18.30;;
22774;SDS011;11554;51.106;3.684;2022-12-18T22:05:00;32.60;;;16.70;;
22774;SDS011;11554;51.106;3.684;2022-12-18T22:10:00;32.60;;;16.70;;
22774;SDS011;11554;51.106;3.684;2022-12-18T22:15:01;33.70;;;18.10;;
22774;SDS011;11554;51.106;3.684;2022-12-18T22:20:00;33.70;;;18.10;;
22774;SDS011;11554;51.106;3.684;2022-12-18T22:25:00;33.80;;;16.60;;
22774;SDS011;11554;51.106;3.684;2022-12-18T22:30:00;33.80;;;16.60;;
22774;SDS011;11554;51.106;3.684;2022-12-18T22:35:02;41.50;;;22.20;;
22774;SDS011;11554;51.106;3.684;2022-12-18T22:40:00;41.50;;;22.20;;
22774;SDS011;11554;51.106;3.684;2022-12-18T22:45:00;33.40;;;16.40;;
22774;SDS011;11554;51.106;3.684;2022-12-18T22:50:00;33.40;;;16.40;;
22774;SDS011;11554;51.106;3.684;2022-12-18T22:55:00;33.70;;;16.70;;
22774;SDS011;11554;51.106;3.684;2022-12-18T23:00:00;33.70;;;16.70;;
22774;SDS011;11554;51.106;3.684;2022-12-18T23:05:00;41.50;;;18.80;;
22774;SDS011;11554;51.106;3.684;2022-12-18T23:10:00;41.50;;;18.80;;
22774;SDS011;11554;51.106;3.684;2022-12-18T23:15:00;42.10;;;19.70;;
22774;SDS011;11554;51.106;3.684;2022-12-18T23:20:00;42.10;;;19.70;;
22774;SDS011;11554;51.106;3.684;2022-12-18T23:25:00;30.90;;;13.80;;
22774;SDS011;11554;51.106;3.684;2022-12-18T23:30:00;30.90;;;13.80;;
22774;SDS011;11554;51.106;3.684;2022-12-18T23:35:00;28.30;;;14.00;;
22774;SDS011;11554;51.106;3.684;2022-12-18T23:40:00;28.30;;;14.00;;
22774;SDS011;11554;51.106;3.684;2022-12-18T23:45:00;32.80;;;16.40;;
22774;SDS011;11554;51.106;3.684;2022-12-18T23:50:00;32.80;;;16.40;;
22774;SDS011;11554;51.106;3.684;2022-12-18T23:55:00;27.00;;;12.90;;
